Terminal Aerodrome Forecast
Issued by NWS

Home | Current Version | Previous Version | Text Only | Print | Product List | Glossary On
Versions: 1 2 3 4 5 6 7 8 9 10 11 12 13 14 15 16 17 18 19 20 21 22 23 24
756
FTUS44 KFWD 250910 AAA
TAFAFW
TAF AMD
KAFW 250910Z 2509/2606 15008KT P6SM SCT250
     FM252100 10007KT P6SM VCTS SCT060CB
     FM260100 13006KT P6SM SCT120 BKN300=

USA.gov is the U.S. government's official web portal to all federal, state and local government web resources and services.